AirNav   Bose ProFlight Series 2 Headset
 
 898 users online  

FA04 Mease Hospital Heliport
Dunedin, Florida, USA

GOING TO DUNEDIN?


FAA INFORMATION EFFECTIVE 30 JANUARY 2020

Location

FAA Identifier: FA04
Lat/Long: 28-00-51.9600N 082-46-55.2000W
28-00.866000N 082-46.920000W
28.0144333,-82.7820000
(estimated)
Elevation: 35 ft. / 11 m (estimated)
Variation: 02W (1990)
Time zone: UTC -5 (UTC -4 during Daylight Saving Time)
Zip code: 34698

Heliport Operations

Heliport use: Private use, MEDICAL.
Activation date: 06/1993
Control tower: no
ARTCC: MIAMI CENTER
FSS: SAINT PETERSBURG FLIGHT SERVICE STATION
Attendance: UNATNDD
Wind indicator: yes
Segmented circle: no
Lights: FOR PERIMETER LGTS CALL 727-734-6161.

Heliport Communications

WX AWOS-3P at CLW (2.5 nm SE): 119.225 (727-449-2184)
WX ASOS at PIE (8 nm SE): PHONE 727-531-3456
WX ASOS at TPA (13 nm E): PHONE 813-873-7228
WX ASOS at SPG (17 nm SE): 118.875 (727-821-4334)
WX AWOS-3 at TPF (19 nm E): 118.925 (813-251-6824)

Nearby radio navigation aids

VOR radial/distance  VOR name  Freq  Var
PIEr326/8.2ST PETERSBURG VORTAC116.4005W
SRQr347/38.2SARASOTA VOR/DME117.0005W

 
NDB name  Hdg/Dist  Freq  Var  ID
CAPOK291/4.336005WPI .--. ..
COSME258/14.336805WTP - .--.

Heliport Services

Runway Information

Helipad H1

Dimensions: 45 x 45 ft. / 14 x 14 m
Surface: concrete, in good condition
Runway edge lights: PERI
Latitude: 28-00.866000N
Longitude: 082-46.920000W
Elevation: 35.0 ft.
Traffic pattern: leftleft

Heliport Ownership and Management from official FAA records

Ownership: Privately-owned
Owner: MEASE HEALTH HOSPITAL INC
2985 DREW STREET
CLEARWATER, FL 33759
Phone 727-519-1787
Manager: KEN WALKER - MANAGER
601 MAIN ST.
DUNEDIN, FL 34698
Phone (727) 580-2628

Additional Remarks

HELIPAD USED FOR EMERGENCY LANDING AND TAKING OFF OF HELICOPTERS TRANSPORTING PATIENTS.
FOR CD CTC TAMPA APCH AT 813-878-2528

Instrument Procedures

There are no published instrument procedures at FA04.

Some nearby airports with instrument procedures:

KCLW - Clearwater Air Park (3 nm SE)
KPIE - St Pete-Clearwater International Airport (8 nm SE)
KTPA - Tampa International Airport (13 nm E)
KMCF - MacDill Air Force Base (17 nm SE)
KSPG - Albert Whitted Airport (17 nm SE)
KTPF - Peter O Knight Airport (19 nm E)
 
Loc | Ops | Rwys | IFR | FBO | Links
Com | Nav | Svcs | Stats | Notes


 
Area around FA04 (Mease Hospital Heliport)
 
Road maps at: MapQuest Bing Google
 
Aerial photo
No photo
 
Sectional chart

 
Airport distance calculator
Flying to Mease Hospital Heliport? Find the distance to fly.

From to FA04

Sunrise and sunset
Times for 16-Feb-2020
 Local
(UTC-5)
 Zulu
(UTC)
Morning civil twilight06:4511:45
Sunrise07:0912:09
Sunset18:2223:22
Evening civil twilight18:4623:46

Current date and time
Zulu (UTC)  17-Feb-2020 02:00:56
Local (UTC-5)  16-Feb-2020 21:00:56
 
METAR
KCLW 
3nm SE 
170155Z AUTO 00000KT 10SM SCT009 20/18 A3008 RMK AO2
KPIE 
8nm SE 
170153Z 00000KT 10SM FEW009 21/19 A3008 RMK AO2 SLP185 T02110194
KTPA 
13nm E 
170153Z 35004KT 10SM BKN010 21/18 A3009 RMK AO2 SLP188 CIG 009V011 T02110183
KSPG 
17nm SE 
170153Z AUTO 33004KT 10SM CLR 22/20 A3006 RMK AO2 SLP178 T02170200
KMCF 
17nm SE 
162156Z AUTO 22008KT 10SM FEW036 26/20 A3002 RMK AO2 SLP169 T02550198 FZRANO $
KTPF 
19nm E 
170155Z AUTO 32004KT 10SM OVC100 22/22 A3008 RMK AO2
TAF
KPIE 
8nm SE 
161720Z 1618/1718 16009KT P6SM SCT030 SCT120 FM162000 24011KT P6SM SCT035 BKN120 FM162300 29007KT P6SM FEW015 SCT025 BKN100 FM170200 VRB03KT P6SM SCT015 SCT025 BKN080 FM170800 00000KT 4SM BR SCT006 OVC015 TEMPO 1708/1712 2SM BR BKN006 FM171500 12005KT P6SM SCT015 BKN025 OVC050
KTPA 
13nm E 
162059Z 1621/1724 24011KT P6SM SCT035 BKN120 FM162300 29007KT P6SM FEW015 SCT025 BKN100 FM170200 VRB03KT P6SM SCT015 SCT025 BKN080 FM170800 00000KT 4SM BR SCT006 OVC015 TEMPO 1708/1712 2SM BR BKN006 FM171500 13005KT P6SM SCT015 BKN025 OVC050 FM171900 23006KT P6SM SCT035 BKN050
KMCF 
17nm SE 
162230Z 1622/1723 22009KT 9999 VCSH SCT030 SCT120 QNH3009INS BECMG 1622/1623 27009KT 9000 -SHRA SCT030 BKN080 QNH3004INS BECMG 1704/1705 02006KT 6000 BR BKN008 QNH3007INS BECMG 1712/1713 VRB06KT 9000 BR SCT012 BKN025 QNH3005INS BECMG 1715/1716 29009KT 9999 NSW SCT030 QNH3010INS TX28/1720Z TN19/1706Z LAST NO AMDS AFT 1622 NEXT 1801
NOTAMs
Click for the latest NOTAMs
NOTAMs are issued by the DoD/FAA and will open in a separate window not controlled by AirNav.

 

 
 

Would you like to see your business listed on this page?

 If your business provides an interesting product or service to pilots, flight crews, aircraft, or users of the Mease Hospital Heliport, you should consider listing it here.  To start the listing process, click on the button below
 
Add a business
 

Other Pages about Mease Hospital Heliport

Update a link
 
Copyright © AirNav, LLC. All rights reserved. Privacy Policy  Contact